sensor_id;sensor_type;location;lat;lon;timestamp;temperature;humidity
67555;HTU21D;54385;53.516;49.456;2022-09-09T00:01:51;9.42;82.60
67555;HTU21D;54385;53.516;49.456;2022-09-09T00:04:27;9.51;82.03
67555;HTU21D;54385;53.516;49.456;2022-09-09T00:09:31;9.51;82.00
67555;HTU21D;54385;53.516;49.456;2022-09-09T00:12:10;9.44;82.45
67555;HTU21D;54385;53.516;49.456;2022-09-09T00:14:58;9.41;82.84
67555;HTU21D;54385;53.516;49.456;2022-09-09T00:20:12;9.38;82.89
67555;HTU21D;54385;53.516;49.456;2022-09-09T00:22:56;9.42;83.15
67555;HTU21D;54385;53.516;49.456;2022-09-09T00:25:40;9.42;82.91
67555;HTU21D;54385;53.516;49.456;2022-09-09T00:28:20;9.44;83.18
67555;HTU21D;54385;53.516;49.456;2022-09-09T00:30:48;9.46;83.10
67555;HTU21D;54385;53.516;49.456;2022-09-09T00:33:18;9.42;82.85
67555;HTU21D;54385;53.516;49.456;2022-09-09T00:35:54;9.45;82.53
67555;HTU21D;54385;53.516;49.456;2022-09-09T00:38:42;9.49;82.61
67555;HTU21D;54385;53.516;49.456;2022-09-09T00:46:51;9.44;82.78
67555;HTU21D;54385;53.516;49.456;2022-09-09T00:52:27;9.53;82.13
67555;HTU21D;54385;53.516;49.456;2022-09-09T00:55:14;9.52;81.55
67555;HTU21D;54385;53.516;49.456;2022-09-09T00:57:42;9.53;81.94
67555;HTU21D;54385;53.516;49.456;2022-09-09T01:00:19;9.51;82.49
67555;HTU21D;54385;53.516;49.456;2022-09-09T01:08:43;9.47;82.16
67555;HTU21D;54385;53.516;49.456;2022-09-09T01:11:21;9.48;82.41
67555;HTU21D;54385;53.516;49.456;2022-09-09T01:13:58;9.55;81.93
67555;HTU21D;54385;53.516;49.456;2022-09-09T01:16:27;9.47;82.32
67555;HTU21D;54385;53.516;49.456;2022-09-09T01:18:56;9.34;82.71
67555;HTU21D;54385;53.516;49.456;2022-09-09T01:27:03;9.25;83.21
67555;HTU21D;54385;53.516;49.456;2022-09-09T01:29:32;9.26;83.25
67555;HTU21D;54385;53.516;49.456;2022-09-09T01:32:00;9.24;83.41
67555;HTU21D;54385;53.516;49.456;2022-09-09T01:34:31;9.24;83.29
67555;HTU21D;54385;53.516;49.456;2022-09-09T01:37:06;9.20;83.54
67555;HTU21D;54385;53.516;49.456;2022-09-09T01:39:35;9.23;83.27
67555;HTU21D;54385;53.516;49.456;2022-09-09T01:42:04;9.24;83.58
67555;HTU21D;54385;53.516;49.456;2022-09-09T01:44:31;9.31;83.26
67555;HTU21D;54385;53.516;49.456;2022-09-09T01:46:57;9.38;82.97
67555;HTU21D;54385;53.516;49.456;2022-09-09T01:49:24;9.44;82.39
67555;HTU21D;54385;53.516;49.456;2022-09-09T01:51:54;9.45;82.46
67555;HTU21D;54385;53.516;49.456;2022-09-09T01:54:26;9.41;82.62
67555;HTU21D;54385;53.516;49.456;2022-09-09T02:02:29;9.32;82.93
67555;HTU21D;54385;53.516;49.456;2022-09-09T02:07:49;9.39;82.62
67555;HTU21D;54385;53.516;49.456;2022-09-09T02:10:29;9.35;82.55
67555;HTU21D;54385;53.516;49.456;2022-09-09T02:13:10;9.31;82.78
67555;HTU21D;54385;53.516;49.456;2022-09-09T02:18:28;9.20;83.16
67555;HTU21D;54385;53.516;49.456;2022-09-09T02:20:57;9.18;83.20
67555;HTU21D;54385;53.516;49.456;2022-09-09T02:23:25;9.18;83.07
67555;HTU21D;54385;53.516;49.456;2022-09-09T02:25:54;9.14;83.35
67555;HTU21D;54385;53.516;49.456;2022-09-09T02:28:24;9.19;83.52
67555;HTU21D;54385;53.516;49.456;2022-09-09T02:30:52;9.22;83.36
67555;HTU21D;54385;53.516;49.456;2022-09-09T02:33:27;9.23;83.37
67555;HTU21D;54385;53.516;49.456;2022-09-09T02:35:55;9.24;83.52
67555;HTU21D;54385;53.516;49.456;2022-09-09T02:38:30;9.30;83.30
67555;HTU21D;54385;53.516;49.456;2022-09-09T02:40:59;9.31;83.25
67555;HTU21D;54385;53.516;49.456;2022-09-09T02:43:25;9.35;83.14
67555;HTU21D;54385;53.516;49.456;2022-09-09T02:48:35;9.46;82.48
67555;HTU21D;54385;53.516;49.456;2022-09-09T02:51:13;9.48;82.26
67555;HTU21D;54385;53.516;49.456;2022-09-09T02:56:16;9.74;80.69
67555;HTU21D;54385;53.516;49.456;2022-09-09T02:58:43;9.67;80.97
67555;HTU21D;54385;53.516;49.456;2022-09-09T03:01:10;9.64;81.46
67555;HTU21D;54385;53.516;49.456;2022-09-09T03:03:37;9.57;81.58
67555;HTU21D;54385;53.516;49.456;2022-09-09T03:06:04;9.61;81.52
67555;HTU21D;54385;53.516;49.456;2022-09-09T03:08:31;9.57;81.98
67555;HTU21D;54385;53.516;49.456;2022-09-09T03:11:01;9.69;81.44
67555;HTU21D;54385;53.516;49.456;2022-09-09T03:13:33;9.65;81.67
67555;HTU21D;54385;53.516;49.456;2022-09-09T03:15:59;9.71;81.47
67555;HTU21D;54385;53.516;49.456;2022-09-09T03:18:26;9.62;80.91
67555;HTU21D;54385;53.516;49.456;2022-09-09T03:20:52;9.54;81.28
67555;HTU21D;54385;53.516;49.456;2022-09-09T03:23:20;9.50;81.91
67555;HTU21D;54385;53.516;49.456;2022-09-09T03:25:53;9.51;82.00
67555;HTU21D;54385;53.516;49.456;2022-09-09T03:28:23;9.60;82.01
67555;HTU21D;54385;53.516;49.456;2022-09-09T03:31:03;9.57;81.74
67555;HTU21D;54385;53.516;49.456;2022-09-09T03:33:37;9.52;81.96
67555;HTU21D;54385;53.516;49.456;2022-09-09T03:36:14;9.53;82.09
67555;HTU21D;54385;53.516;49.456;2022-09-09T03:38:53;9.56;82.24
67555;HTU21D;54385;53.516;49.456;2022-09-09T03:41:29;9.71;81.26
67555;HTU21D;54385;53.516;49.456;2022-09-09T03:43:55;9.85;81.20
67555;HTU21D;54385;53.516;49.456;2022-09-09T03:46:25;9.92;80.65
67555;HTU21D;54385;53.516;49.456;2022-09-09T03:48:54;10.07;81.06
67555;HTU21D;54385;53.516;49.456;2022-09-09T03:51:23;10.34;79.78
67555;HTU21D;54385;53.516;49.456;2022-09-09T03:53:50;10.55;79.34
67555;HTU21D;54385;53.516;49.456;2022-09-09T03:56:16;10.60;78.77
67555;HTU21D;54385;53.516;49.456;2022-09-09T03:58:43;10.72;78.30
67555;HTU21D;54385;53.516;49.456;2022-09-09T04:01:10;10.69;78.01
67555;HTU21D;54385;53.516;49.456;2022-09-09T04:03:40;10.70;78.47
67555;HTU21D;54385;53.516;49.456;2022-09-09T04:06:08;10.59;78.93
67555;HTU21D;54385;53.516;49.456;2022-09-09T04:08:35;10.55;78.73
67555;HTU21D;54385;53.516;49.456;2022-09-09T04:11:02;10.65;79.01
67555;HTU21D;54385;53.516;49.456;2022-09-09T04:13:30;10.65;78.50
67555;HTU21D;54385;53.516;49.456;2022-09-09T04:15:57;10.57;78.40
67555;HTU21D;54385;53.516;49.456;2022-09-09T04:18:25;10.55;78.09
67555;HTU21D;54385;53.516;49.456;2022-09-09T04:20:52;10.37;77.61
67555;HTU21D;54385;53.516;49.456;2022-09-09T04:23:19;10.36;78.24
67555;HTU21D;54385;53.516;49.456;2022-09-09T04:25:47;10.23;78.26
67555;HTU21D;54385;53.516;49.456;2022-09-09T04:28:15;10.21;78.55
67555;HTU21D;54385;53.516;49.456;2022-09-09T04:30:42;10.26;78.23
67555;HTU21D;54385;53.516;49.456;2022-09-09T04:33:10;10.39;78.52
67555;HTU21D;54385;53.516;49.456;2022-09-09T04:35:38;10.63;77.99
67555;HTU21D;54385;53.516;49.456;2022-09-09T04:38:05;10.85;76.19
67555;HTU21D;54385;53.516;49.456;2022-09-09T04:40:35;11.16;76.49
67555;HTU21D;54385;53.516;49.456;2022-09-09T04:43:02;11.47;74.76
67555;HTU21D;54385;53.516;49.456;2022-09-09T04:45:34;11.61;73.47
67555;HTU21D;54385;53.516;49.456;2022-09-09T04:48:02;11.66;73.61
67555;HTU21D;54385;53.516;49.456;2022-09-09T04:50:30;11.63;73.54
67555;HTU21D;54385;53.516;49.456;2022-09-09T04:52:56;11.72;72.93
67555;HTU21D;54385;53.516;49.456;2022-09-09T04:55:28;11.88;73.51
67555;HTU21D;54385;53.516;49.456;2022-09-09T04:58:03;11.90;73.41
67555;HTU21D;54385;53.516;49.456;2022-09-09T05:00:30;11.94;72.41
67555;HTU21D;54385;53.516;49.456;2022-09-09T05:02:56;12.05;71.59
67555;HTU21D;54385;53.516;49.456;2022-09-09T05:05:23;12.04;70.55
67555;HTU21D;54385;53.516;49.456;2022-09-09T05:08:03;12.02;72.06
67555;HTU21D;54385;53.516;49.456;2022-09-09T05:10:31;12.01;71.28
67555;HTU21D;54385;53.516;49.456;2022-09-09T05:13:12;12.02;71.26
67555;HTU21D;54385;53.516;49.456;2022-09-09T05:15:42;11.84;71.26
67555;HTU21D;54385;53.516;49.456;2022-09-09T05:18:17;11.75;72.26
67555;HTU21D;54385;53.516;49.456;2022-09-09T05:21:24;11.66;73.22
67555;HTU21D;54385;53.516;49.456;2022-09-09T05:23:57;11.64;73.17
67555;HTU21D;54385;53.516;49.456;2022-09-09T05:26:38;11.63;72.28
67555;HTU21D;54385;53.516;49.456;2022-09-09T05:29:04;11.61;72.61
67555;HTU21D;54385;53.516;49.456;2022-09-09T05:31:32;11.53;72.23
67555;HTU21D;54385;53.516;49.456;2022-09-09T05:33:59;11.48;72.68
67555;HTU21D;54385;53.516;49.456;2022-09-09T05:36:26;11.68;72.96
67555;HTU21D;54385;53.516;49.456;2022-09-09T05:38:53;11.87;71.70
67555;HTU21D;54385;53.516;49.456;2022-09-09T05:41:21;11.98;71.58
67555;HTU21D;54385;53.516;49.456;2022-09-09T05:43:49;11.92;70.63
67555;HTU21D;54385;53.516;49.456;2022-09-09T05:46:21;11.82;70.90
67555;HTU21D;54385;53.516;49.456;2022-09-09T05:48:48;11.73;71.87
67555;HTU21D;54385;53.516;49.456;2022-09-09T05:51:21;11.78;72.18
67555;HTU21D;54385;53.516;49.456;2022-09-09T05:53:50;11.84;71.38
67555;HTU21D;54385;53.516;49.456;2022-09-09T05:56:23;11.76;71.38
67555;HTU21D;54385;53.516;49.456;2022-09-09T05:58:51;11.84;70.21
67555;HTU21D;54385;53.516;49.456;2022-09-09T06:01:31;11.85;70.49
67555;HTU21D;54385;53.516;49.456;2022-09-09T06:03:58;11.93;70.87
67555;HTU21D;54385;53.516;49.456;2022-09-09T06:06:27;11.99;69.46
67555;HTU21D;54385;53.516;49.456;2022-09-09T06:08:57;12.07;69.35
67555;HTU21D;54385;53.516;49.456;2022-09-09T06:11:30;12.08;68.81
67555;HTU21D;54385;53.516;49.456;2022-09-09T06:14:04;12.06;68.83
67555;HTU21D;54385;53.516;49.456;2022-09-09T06:16:31;12.03;69.00
67555;HTU21D;54385;53.516;49.456;2022-09-09T06:19:04;12.14;68.57
67555;HTU21D;54385;53.516;49.456;2022-09-09T06:21:33;12.14;69.00
67555;HTU21D;54385;53.516;49.456;2022-09-09T06:24:03;12.02;68.28
67555;HTU21D;54385;53.516;49.456;2022-09-09T06:26:31;12.00;69.45
67555;HTU21D;54385;53.516;49.456;2022-09-09T06:28:59;11.77;70.02
67555;HTU21D;54385;53.516;49.456;2022-09-09T06:31:28;11.34;78.68
67555;HTU21D;54385;53.516;49.456;2022-09-09T06:33:57;10.86;81.52
67555;HTU21D;54385;53.516;49.456;2022-09-09T06:36:29;10.46;82.57
67555;HTU21D;54385;53.516;49.456;2022-09-09T06:38:57;10.11;84.78
67555;HTU21D;54385;53.516;49.456;2022-09-09T06:41:27;10.00;85.61
67555;HTU21D;54385;53.516;49.456;2022-09-09T06:43:55;9.82;85.12
67555;HTU21D;54385;53.516;49.456;2022-09-09T06:46:24;9.84;86.74
67555;HTU21D;54385;53.516;49.456;2022-09-09T06:48:58;9.89;85.91
67555;HTU21D;54385;53.516;49.456;2022-09-09T06:51:28;9.96;84.44
67555;HTU21D;54385;53.516;49.456;2022-09-09T06:53:58;9.86;82.94
67555;HTU21D;54385;53.516;49.456;2022-09-09T06:56:29;9.80;83.49
67555;HTU21D;54385;53.516;49.456;2022-09-09T06:58:58;9.79;82.46
67555;HTU21D;54385;53.516;49.456;2022-09-09T07:01:28;10.05;84.66
67555;HTU21D;54385;53.516;49.456;2022-09-09T07:03:57;10.26;82.13
67555;HTU21D;54385;53.516;49.456;2022-09-09T07:06:29;10.41;79.87
67555;HTU21D;54385;53.516;49.456;2022-09-09T07:08:59;10.54;79.56
67555;HTU21D;54385;53.516;49.456;2022-09-09T07:11:28;10.72;80.05
67555;HTU21D;54385;53.516;49.456;2022-09-09T07:13:56;10.93;78.88
67555;HTU21D;54385;53.516;49.456;2022-09-09T07:16:23;11.03;78.42
67555;HTU21D;54385;53.516;49.456;2022-09-09T07:18:51;11.03;76.74
67555;HTU21D;54385;53.516;49.456;2022-09-09T07:21:21;11.20;76.65
67555;HTU21D;54385;53.516;49.456;2022-09-09T07:23:48;11.39;76.24
67555;HTU21D;54385;53.516;49.456;2022-09-09T07:26:20;11.56;73.98
67555;HTU21D;54385;53.516;49.456;2022-09-09T07:28:47;11.68;76.05
67555;HTU21D;54385;53.516;49.456;2022-09-09T07:31:21;11.76;71.38
67555;HTU21D;54385;53.516;49.456;2022-09-09T07:33:48;11.77;71.92
67555;HTU21D;54385;53.516;49.456;2022-09-09T07:36:17;11.86;70.01
67555;HTU21D;54385;53.516;49.456;2022-09-09T07:38:49;11.85;68.15
67555;HTU21D;54385;53.516;49.456;2022-09-09T07:41:24;11.87;68.57
67555;HTU21D;54385;53.516;49.456;2022-09-09T07:43:51;11.96;69.42
67555;HTU21D;54385;53.516;49.456;2022-09-09T07:46:22;12.19;67.73
67555;HTU21D;54385;53.516;49.456;2022-09-09T07:48:53;12.53;69.96
67555;HTU21D;54385;53.516;49.456;2022-09-09T07:51:26;12.91;67.98
67555;HTU21D;54385;53.516;49.456;2022-09-09T07:53:57;12.86;67.22
67555;HTU21D;54385;53.516;49.456;2022-09-09T07:56:26;12.78;66.66
67555;HTU21D;54385;53.516;49.456;2022-09-09T07:58:55;12.77;67.43
67555;HTU21D;54385;53.516;49.456;2022-09-09T08:01:30;12.62;66.85
67555;HTU21D;54385;53.516;49.456;2022-09-09T08:04:02;12.46;65.64
67555;HTU21D;54385;53.516;49.456;2022-09-09T08:06:31;12.23;65.84
67555;HTU21D;54385;53.516;49.456;2022-09-09T08:08:59;12.16;67.26
67555;HTU21D;54385;53.516;49.456;2022-09-09T08:11:29;12.37;65.60
67555;HTU21D;54385;53.516;49.456;2022-09-09T08:14:15;12.67;66.20
67555;HTU21D;54385;53.516;49.456;2022-09-09T08:16:55;12.87;65.12
67555;HTU21D;54385;53.516;49.456;2022-09-09T08:19:23;12.93;65.46
67555;HTU21D;54385;53.516;49.456;2022-09-09T08:21:57;12.97;65.16
67555;HTU21D;54385;53.516;49.456;2022-09-09T08:24:35;12.73;64.72
67555;HTU21D;54385;53.516;49.456;2022-09-09T08:27:06;12.49;61.68
67555;HTU21D;54385;53.516;49.456;2022-09-09T08:29:35;12.31;60.91
67555;HTU21D;54385;53.516;49.456;2022-09-09T08:32:16;12.26;60.70
67555;HTU21D;54385;53.516;49.456;2022-09-09T08:35:05;12.20;61.66
67555;HTU21D;54385;53.516;49.456;2022-09-09T08:37:56;12.18;62.44
67555;HTU21D;54385;53.516;49.456;2022-09-09T08:53:42;12.31;60.47
67555;HTU21D;54385;53.516;49.456;2022-09-09T08:59:31;13.03;61.92
67555;HTU21D;54385;53.516;49.456;2022-09-09T09:10:46;13.62;57.27
67555;HTU21D;54385;53.516;49.456;2022-09-09T09:19:16;14.15;56.23
67555;HTU21D;54385;53.516;49.456;2022-09-09T09:37:49;12.91;58.33
67555;HTU21D;54385;53.516;49.456;2022-09-09T09:42:15;13.03;57.99
67555;HTU21D;54385;53.516;49.456;2022-09-09T09:44:43;13.19;58.33
67555;HTU21D;54385;53.516;49.456;2022-09-09T09:47:21;13.48;56.23
67555;HTU21D;54385;53.516;49.456;2022-09-09T09:50:19;13.56;56.86
67555;HTU21D;54385;53.516;49.456;2022-09-09T09:53:02;13.60;56.29
67555;HTU21D;54385;53.516;49.456;2022-09-09T09:55:55;13.29;57.60
67555;HTU21D;54385;53.516;49.456;2022-09-09T09:58:25;13.56;57.58
67555;HTU21D;54385;53.516;49.456;2022-09-09T10:01:01;13.69;58.04
67555;HTU21D;54385;53.516;49.456;2022-09-09T10:03:35;14.10;57.79
67555;HTU21D;54385;53.516;49.456;2022-09-09T10:06:35;14.42;57.18
67555;HTU21D;54385;53.516;49.456;2022-09-09T10:09:29;14.39;56.36
67555;HTU21D;54385;53.516;49.456;2022-09-09T10:21:36;15.63;52.59
67555;HTU21D;54385;53.516;49.456;2022-09-09T10:32:40;16.01;49.85
67555;HTU21D;54385;53.516;49.456;2022-09-09T10:35:29;16.49;49.44
67555;HTU21D;54385;53.516;49.456;2022-09-09T10:38:29;16.42;49.98
67555;HTU21D;54385;53.516;49.456;2022-09-09T10:52:36;14.40;55.80
67555;HTU21D;54385;53.516;49.456;2022-09-09T10:55:40;14.01;55.77
67555;HTU21D;54385;53.516;49.456;2022-09-09T10:58:14;13.80;56.90
67555;HTU21D;54385;53.516;49.456;2022-09-09T11:00:47;13.74;58.96
67555;HTU21D;54385;53.516;49.456;2022-09-09T11:03:37;14.00;56.76
67555;HTU21D;54385;53.516;49.456;2022-09-09T11:06:12;14.18;55.94
67555;HTU21D;54385;53.516;49.456;2022-09-09T11:08:40;14.41;56.59
67555;HTU21D;54385;53.516;49.456;2022-09-09T11:11:11;14.88;56.06
67555;HTU21D;54385;53.516;49.456;2022-09-09T11:13:56;15.23;54.06
67555;HTU21D;54385;53.516;49.456;2022-09-09T11:16:29;15.77;55.07
67555;HTU21D;54385;53.516;49.456;2022-09-09T11:19:04;15.91;55.80
67555;HTU21D;54385;53.516;49.456;2022-09-09T11:21:48;15.81;53.28
67555;HTU21D;54385;53.516;49.456;2022-09-09T11:24:37;15.78;54.85
67555;HTU21D;54385;53.516;49.456;2022-09-09T11:38:28;15.03;53.65
67555;HTU21D;54385;53.516;49.456;2022-09-09T11:41:07;15.30;54.26
67555;HTU21D;54385;53.516;49.456;2022-09-09T11:46:21;14.41;56.27
67555;HTU21D;54385;53.516;49.456;2022-09-09T11:49:03;14.04;57.61
67555;HTU21D;54385;53.516;49.456;2022-09-09T11:51:32;13.82;58.57
67555;HTU21D;54385;53.516;49.456;2022-09-09T11:54:01;13.47;59.84
67555;HTU21D;54385;53.516;49.456;2022-09-09T11:56:41;13.29;60.54
67555;HTU21D;54385;53.516;49.456;2022-09-09T11:59:29;13.24;60.71
67555;HTU21D;54385;53.516;49.456;2022-09-09T12:02:27;13.19;60.77
67555;HTU21D;54385;53.516;49.456;2022-09-09T12:05:06;12.93;62.39
67555;HTU21D;54385;53.516;49.456;2022-09-09T12:07:56;12.76;62.00
67555;HTU21D;54385;53.516;49.456;2022-09-09T12:10:33;12.51;63.92
67555;HTU21D;54385;53.516;49.456;2022-09-09T12:13:15;12.48;63.69
67555;HTU21D;54385;53.516;49.456;2022-09-09T12:15:53;12.41;63.63
67555;HTU21D;54385;53.516;49.456;2022-09-09T12:18:34;12.31;64.24
67555;HTU21D;54385;53.516;49.456;2022-09-09T12:29:03;12.62;65.24
67555;HTU21D;54385;53.516;49.456;2022-09-09T12:37:40;12.38;66.97
67555;HTU21D;54385;53.516;49.456;2022-09-09T12:40:27;12.94;65.55
67555;HTU21D;54385;53.516;49.456;2022-09-09T12:43:20;13.21;64.92
67555;HTU21D;54385;53.516;49.456;2022-09-09T12:46:03;13.05;64.98
67555;HTU21D;54385;53.516;49.456;2022-09-09T12:48:40;13.30;65.01
67555;HTU21D;54385;53.516;49.456;2022-09-09T12:51:37;13.34;63.33
67555;HTU21D;54385;53.516;49.456;2022-09-09T12:54:04;13.06;64.37
67555;HTU21D;54385;53.516;49.456;2022-09-09T12:56:32;12.78;65.39
67555;HTU21D;54385;53.516;49.456;2022-09-09T12:58:59;12.53;66.17
67555;HTU21D;54385;53.516;49.456;2022-09-09T13:01:37;12.33;66.96
67555;HTU21D;54385;53.516;49.456;2022-09-09T13:04:19;12.33;67.43
67555;HTU21D;54385;53.516;49.456;2022-09-09T13:06:50;12.01;68.20
67555;HTU21D;54385;53.516;49.456;2022-09-09T13:09:24;11.84;69.29
67555;HTU21D;54385;53.516;49.456;2022-09-09T13:11:54;11.85;69.57
67555;HTU21D;54385;53.516;49.456;2022-09-09T13:14:30;11.74;70.17
67555;HTU21D;54385;53.516;49.456;2022-09-09T13:17:01;11.68;70.71
67555;HTU21D;54385;53.516;49.456;2022-09-09T13:19:35;11.76;70.43
67555;HTU21D;54385;53.516;49.456;2022-09-09T13:22:34;11.97;69.85
67555;HTU21D;54385;53.516;49.456;2022-09-09T13:25:17;12.08;69.74
67555;HTU21D;54385;53.516;49.456;2022-09-09T13:28:03;12.06;69.95
67555;HTU21D;54385;53.516;49.456;2022-09-09T13:30:35;11.92;69.88
67555;HTU21D;54385;53.516;49.456;2022-09-09T13:33:21;11.83;69.77
67555;HTU21D;54385;53.516;49.456;2022-09-09T13:35:56;11.93;69.63
67555;HTU21D;54385;53.516;49.456;2022-09-09T13:38:23;12.04;68.91
67555;HTU21D;54385;53.516;49.456;2022-09-09T13:41:00;11.92;69.90
67555;HTU21D;54385;53.516;49.456;2022-09-09T13:43:34;11.85;70.57
67555;HTU21D;54385;53.516;49.456;2022-09-09T13:46:48;11.78;70.59
67555;HTU21D;54385;53.516;49.456;2022-09-09T13:51:37;11.11;75.25
67555;HTU21D;54385;53.516;49.456;2022-09-09T13:54:05;10.86;74.01
67555;HTU21D;54385;53.516;49.456;2022-09-09T13:56:36;10.68;74.27
67555;HTU21D;54385;53.516;49.456;2022-09-09T13:59:05;10.57;74.21
67555;HTU21D;54385;53.516;49.456;2022-09-09T14:01:32;10.53;74.93
67555;HTU21D;54385;53.516;49.456;2022-09-09T14:04:00;10.51;75.02
67555;HTU21D;54385;53.516;49.456;2022-09-09T14:06:27;10.48;75.41
67555;HTU21D;54385;53.516;49.456;2022-09-09T14:08:55;10.45;75.56
67555;HTU21D;54385;53.516;49.456;2022-09-09T14:11:21;10.43;76.02
67555;HTU21D;54385;53.516;49.456;2022-09-09T14:13:48;10.42;76.53
67555;HTU21D;54385;53.516;49.456;2022-09-09T14:16:18;10.48;76.55
67555;HTU21D;54385;53.516;49.456;2022-09-09T14:18:45;10.48;76.76
67555;HTU21D;54385;53.516;49.456;2022-09-09T14:21:12;10.39;76.66
67555;HTU21D;54385;53.516;49.456;2022-09-09T14:23:38;10.30;77.36
67555;HTU21D;54385;53.516;49.456;2022-09-09T14:26:05;10.33;77.18
67555;HTU21D;54385;53.516;49.456;2022-09-09T14:28:35;10.28;76.42
67555;HTU21D;54385;53.516;49.456;2022-09-09T14:31:04;10.28;76.10
67555;HTU21D;54385;53.516;49.456;2022-09-09T14:33:31;10.23;75.95
67555;HTU21D;54385;53.516;49.456;2022-09-09T14:35:59;10.14;75.83
67555;HTU21D;54385;53.516;49.456;2022-09-09T14:38:29;10.12;75.84
67555;HTU21D;54385;53.516;49.456;2022-09-09T14:40:56;10.11;76.17
67555;HTU21D;54385;53.516;49.456;2022-09-09T14:43:24;10.06;76.65
67555;HTU21D;54385;53.516;49.456;2022-09-09T14:45:52;10.06;76.98
67555;HTU21D;54385;53.516;49.456;2022-09-09T14:48:18;10.08;77.31
67555;HTU21D;54385;53.516;49.456;2022-09-09T14:50:45;10.05;77.70
67555;HTU21D;54385;53.516;49.456;2022-09-09T14:53:11;10.07;78.01
67555;HTU21D;54385;53.516;49.456;2022-09-09T14:55:38;10.09;77.98
67555;HTU21D;54385;53.516;49.456;2022-09-09T14:58:05;10.06;77.95
67555;HTU21D;54385;53.516;49.456;2022-09-09T15:00:32;9.99;78.38
67555;HTU21D;54385;53.516;49.456;2022-09-09T15:02:58;9.96;78.33
67555;HTU21D;54385;53.516;49.456;2022-09-09T15:05:25;9.98;78.51
67555;HTU21D;54385;53.516;49.456;2022-09-09T15:07:51;9.98;78.22
67555;HTU21D;54385;53.516;49.456;2022-09-09T15:10:17;10.04;78.44
67555;HTU21D;54385;53.516;49.456;2022-09-09T15:12:44;10.07;78.12
67555;HTU21D;54385;53.516;49.456;2022-09-09T15:15:10;10.03;77.66
67555;HTU21D;54385;53.516;49.456;2022-09-09T15:17:38;9.98;78.13
67555;HTU21D;54385;53.516;49.456;2022-09-09T15:20:05;9.93;78.34
67555;HTU21D;54385;53.516;49.456;2022-09-09T15:22:32;9.93;78.55
67555;HTU21D;54385;53.516;49.456;2022-09-09T15:24:59;9.94;78.81
67555;HTU21D;54385;53.516;49.456;2022-09-09T15:27:26;9.90;78.50
67555;HTU21D;54385;53.516;49.456;2022-09-09T15:29:57;9.88;78.56
67555;HTU21D;54385;53.516;49.456;2022-09-09T15:32:24;9.81;78.53
67555;HTU21D;54385;53.516;49.456;2022-09-09T15:34:50;9.74;78.50
67555;HTU21D;54385;53.516;49.456;2022-09-09T15:37:17;9.68;78.72
67555;HTU21D;54385;53.516;49.456;2022-09-09T15:39:44;9.61;78.75
67555;HTU21D;54385;53.516;49.456;2022-09-09T15:42:10;9.55;79.41
67555;HTU21D;54385;53.516;49.456;2022-09-09T15:44:43;9.48;79.50
67555;HTU21D;54385;53.516;49.456;2022-09-09T15:47:11;9.44;79.82
67555;HTU21D;54385;53.516;49.456;2022-09-09T15:49:41;9.45;79.94
67555;HTU21D;54385;53.516;49.456;2022-09-09T15:52:09;9.41;80.24
67555;HTU21D;54385;53.516;49.456;2022-09-09T15:54:37;9.37;80.40
67555;HTU21D;54385;53.516;49.456;2022-09-09T15:57:10;9.36;80.47
67555;HTU21D;54385;53.516;49.456;2022-09-09T15:59:37;9.37;80.72
67555;HTU21D;54385;53.516;49.456;2022-09-09T16:02:03;9.35;80.93
67555;HTU21D;54385;53.516;49.456;2022-09-09T16:04:31;9.34;80.85
67555;HTU21D;54385;53.516;49.456;2022-09-09T16:07:00;9.32;81.19
67555;HTU21D;54385;53.516;49.456;2022-09-09T16:09:27;9.30;81.21
67555;HTU21D;54385;53.516;49.456;2022-09-09T16:11:56;9.33;81.24
67555;HTU21D;54385;53.516;49.456;2022-09-09T16:14:26;9.35;81.34
67555;HTU21D;54385;53.516;49.456;2022-09-09T16:16:53;9.39;81.25
67555;HTU21D;54385;53.516;49.456;2022-09-09T16:19:20;9.38;81.22
67555;HTU21D;54385;53.516;49.456;2022-09-09T16:21:48;9.40;81.18
67555;HTU21D;54385;53.516;49.456;2022-09-09T16:24:18;9.39;81.21
67555;HTU21D;54385;53.516;49.456;2022-09-09T16:26:48;9.44;81.15
67555;HTU21D;54385;53.516;49.456;2022-09-09T16:29:19;9.48;80.84
67555;HTU21D;54385;53.516;49.456;2022-09-09T16:31:49;9.47;80.84
67555;HTU21D;54385;53.516;49.456;2022-09-09T16:34:16;9.49;80.66
67555;HTU21D;54385;53.516;49.456;2022-09-09T16:36:44;9.49;80.56
67555;HTU21D;54385;53.516;49.456;2022-09-09T16:39:13;9.48;80.70
67555;HTU21D;54385;53.516;49.456;2022-09-09T16:41:41;9.48;80.76
67555;HTU21D;54385;53.516;49.456;2022-09-09T16:44:11;9.48;80.95
67555;HTU21D;54385;53.516;49.456;2022-09-09T16:46:42;9.47;80.94
67555;HTU21D;54385;53.516;49.456;2022-09-09T16:49:13;9.51;80.79
67555;HTU21D;54385;53.516;49.456;2022-09-09T16:51:46;9.52;80.78
67555;HTU21D;54385;53.516;49.456;2022-09-09T16:54:15;9.52;80.68
67555;HTU21D;54385;53.516;49.456;2022-09-09T16:56:45;9.52;80.71
67555;HTU21D;54385;53.516;49.456;2022-09-09T16:59:14;9.54;80.74
67555;HTU21D;54385;53.516;49.456;2022-09-09T17:01:42;9.54;80.88
67555;HTU21D;54385;53.516;49.456;2022-09-09T17:04:21;9.53;80.81
67555;HTU21D;54385;53.516;49.456;2022-09-09T17:06:51;9.55;80.76
67555;HTU21D;54385;53.516;49.456;2022-09-09T17:09:19;9.54;80.98
67555;HTU21D;54385;53.516;49.456;2022-09-09T17:11:46;9.50;80.98
67555;HTU21D;54385;53.516;49.456;2022-09-09T17:14:16;9.56;81.09
67555;HTU21D;54385;53.516;49.456;2022-09-09T17:16:44;9.54;80.94
67555;HTU21D;54385;53.516;49.456;2022-09-09T17:19:11;9.51;81.04
67555;HTU21D;54385;53.516;49.456;2022-09-09T17:21:38;9.53;81.10
67555;HTU21D;54385;53.516;49.456;2022-09-09T17:24:04;9.53;81.10
67555;HTU21D;54385;53.516;49.456;2022-09-09T17:26:32;9.55;80.92
67555;HTU21D;54385;53.516;49.456;2022-09-09T17:29:02;9.54;80.76
67555;HTU21D;54385;53.516;49.456;2022-09-09T17:31:29;9.59;80.98
67555;HTU21D;54385;53.516;49.456;2022-09-09T17:33:56;9.54;80.88
67555;HTU21D;54385;53.516;49.456;2022-09-09T17:36:26;9.49;82.07
67555;HTU21D;54385;53.516;49.456;2022-09-09T17:38:53;9.48;82.97
67555;HTU21D;54385;53.516;49.456;2022-09-09T17:41:23;9.44;82.75
67555;HTU21D;54385;53.516;49.456;2022-09-09T17:43:50;9.37;83.68
67555;HTU21D;54385;53.516;49.456;2022-09-09T17:46:22;9.36;82.73
67555;HTU21D;54385;53.516;49.456;2022-09-09T17:48:52;9.31;82.38
67555;HTU21D;54385;53.516;49.456;2022-09-09T17:51:22;9.27;82.68
67555;HTU21D;54385;53.516;49.456;2022-09-09T17:53:54;9.25;82.81
67555;HTU21D;54385;53.516;49.456;2022-09-09T17:56:23;9.23;83.24
67555;HTU21D;54385;53.516;49.456;2022-09-09T17:58:52;9.22;83.07
67555;HTU21D;54385;53.516;49.456;2022-09-09T18:01:26;9.20;83.00
67555;HTU21D;54385;53.516;49.456;2022-09-09T18:03:58;9.19;83.71
67555;HTU21D;54385;53.516;49.456;2022-09-09T18:06:29;9.17;83.39
67555;HTU21D;54385;53.516;49.456;2022-09-09T18:08:59;9.17;83.59